Capewater — PBPQ — position and weather

sailwx.info

Track history (hours):
 
Tides and Currents Weather Stations Pressure Air Temp Water Temp Dewpoint Dewpoint Depression Visibility Wind Speed Wind Dir Waves Ship Positions

Capewater

Last reported at 2018-Apr-27 08:29 UTC. Time now 2018-Apr-27 08:43 UTC.
Position N 49°28' E 000°14'.

Length 100 m; draft 7.7 m.

Type: Tanker. MMSI: 246346000.

Date/timePositionNaut miles runAvg speedWind from/ knotsBaromVisibWave heightAir tempDewpointWater temp
2018-Apr-27 08:29N 49°28' E 000°14'0 0.0
2018-Apr-27 07:59N 49°28' E 000°14'0 0.0
2018-Apr-27 07:30N 49°28' E 000°14'0 0.0
2018-Apr-27 06:59N 49°28' E 000°14'0 0.0
2018-Apr-27 06:30N 49°28' E 000°14'0 0.0
2018-Apr-27 06:00N 49°28' E 000°14'0 0.0
2018-Apr-27 05:30N 49°28' E 000°14'0 0.0
2018-Apr-27 05:00N 49°28' E 000°14'0 0.0
2018-Apr-27 04:29N 49°28' E 000°14'0 0.0
2018-Apr-27 03:59N 49°28' E 000°14'0 0.0
2018-Apr-27 03:29N 49°28' E 000°14'0 0.0
2018-Apr-27 02:59N 49°28' E 000°14'0 0.0
2018-Apr-27 02:29N 49°28' E 000°14'0 0.0
2018-Apr-27 01:59N 49°28' E 000°14'0 0.0
2018-Apr-27 01:30N 49°28' E 000°14'0 0.0
2018-Apr-27 00:59N 49°28' E 000°14'0 0.0
2018-Apr-27 00:30N 49°28' E 000°14'0 0.0
2018-Apr-27 00:00N 49°28' E 000°14'0 0.0
2018-Apr-26 23:29N 49°28' E 000°14'0 0.0
2018-Apr-26 22:59N 49°28' E 000°14'0 0.0
2018-Apr-26 22:29N 49°28' E 000°14'0 0.0
2018-Apr-26 22:00N 49°28' E 000°14'0 0.0
2018-Apr-26 21:29N 49°28' E 000°14'0 0.0
2018-Apr-26 20:59N 49°28' E 000°14'0 0.0
2018-Apr-26 20:29N 49°28' E 000°14'0 0.0
2018-Apr-26 19:59N 49°28' E 000°14'0 0.0
2018-Apr-26 19:29N 49°28' E 000°14'0 0.0
2018-Apr-26 19:00N 49°28' E 000°14'0 0.0
2018-Apr-26 18:29N 49°28' E 000°14'0 0.0
2018-Apr-26 17:59N 49°28' E 000°14'0 0.0
2018-Apr-26 17:29N 49°28' E 000°14'0 0.0
2018-Apr-26 16:59N 49°28' E 000°14'0 0.0
2018-Apr-26 16:29N 49°28' E 000°14'0 0.0
2018-Apr-26 15:59N 49°28' E 000°14'0 0.0
2018-Apr-26 15:29N 49°28' E 000°14'0 0.0
2018-Apr-26 14:59N 49°28' E 000°14'0 0.0
2018-Apr-26 14:29N 49°28' E 000°14'0 0.0
2018-Apr-26 13:59N 49°28' E 000°14'0 0.0
2018-Apr-26 13:29N 49°28' E 000°14'0 0.0
2018-Apr-26 13:00N 49°28' E 000°14'0 0.0
2018-Apr-26 12:29N 49°28' E 000°14'0 0.0
2018-Apr-26 11:59N 49°28' E 000°14'0 0.0
2018-Apr-26 11:29N 49°28' E 000°14'2 3.8
2018-Apr-26 11:01N 49°29' E 000°11'1 2.3
2018-Apr-26 10:30N 49°29' E 000°10'1 2.6
2018-Apr-26 10:00N 49°29' E 000°08'0 0.1
2018-Apr-26 09:31N 49°29' E 000°08'1 1.9
2018-Apr-26 09:00N 49°29' E 000°07'0 0.2
2018-Apr-26 08:30N 49°29' E 000°07'1 1.3
2018-Apr-26 08:00N 49°29' E 000°06'510.5
2018-Apr-26 07:31N 49°30' W 000°02'2 2.9
2018-Apr-26 06:59N 49°30' W 000°04'0 0.0
2018-Apr-26 06:29N 49°30' W 000°04'0 0.0
2018-Apr-26 05:59N 49°30' W 000°04'0 0.0
2018-Apr-26 05:29N 49°30' W 000°04'0 0.0
2018-Apr-26 04:59N 49°30' W 000°04'0 0.0
2018-Apr-26 04:29N 49°30' W 000°04'0 0.0
2018-Apr-26 03:59N 49°30' W 000°04'0 0.0
2018-Apr-26 03:29N 49°30' W 000°04'0 0.0
2018-Apr-26 02:59N 49°30' W 000°04'0 0.0
2018-Apr-26 02:29N 49°30' W 000°04'0 0.0
2018-Apr-26 01:59N 49°30' W 000°04'0 0.0
2018-Apr-26 01:29N 49°30' W 000°04'0 0.0
2018-Apr-26 00:59N 49°30' W 000°04'0 0.0
2018-Apr-26 00:29N 49°30' W 000°04'0 0.0
2018-Apr-25 23:59N 49°30' W 000°04'0 0.0
2018-Apr-25 23:29N 49°30' W 000°04'0 0.0
2018-Apr-25 22:59N 49°30' W 000°04'0 0.0
2018-Apr-25 22:26N 49°30' W 000°04'0 0.2
2018-Apr-25 22:00N 49°30' W 000°05'4 8.1
2018-Apr-25 21:30N 49°32' W 000°10'611.6
2018-Apr-25 21:00N 49°38' W 000°11'612.3
2018-Apr-25 20:30N 49°44' W 000°10'611.7
2018-Apr-25 20:00N 49°50' W 000°10'611.4
2018-Apr-25 19:30N 49°55' W 000°09'611.0
2018-Apr-25 19:00N 50°01' W 000°09'510.4
2018-Apr-25 18:30N 50°06' W 000°07'5 9.5
2018-Apr-25 18:00N 50°11' W 000°06'5 9.7
2018-Apr-25 17:30N 50°16' W 000°05'510.4
2018-Apr-25 17:00N 50°21' W 000°05'510.1
2018-Apr-25 16:30N 50°26' W 000°05'5 9.1
2018-Apr-25 16:00N 50°28' E 000°02'510.3
2018-Apr-25 15:30N 50°29' E 000°09'510.9
2018-Apr-25 15:00N 50°31' E 000°18'611.5
2018-Apr-25 14:29N 50°33' E 000°26'612.1
2018-Apr-25 14:00N 50°35' E 000°35'612.4
2018-Apr-25 13:30N 50°38' E 000°44'612.6
2018-Apr-25 13:00N 50°41' E 000°52'612.7
2018-Apr-25 12:30N 50°45' E 000°59'1712.2
2018-Apr-25 11:08N 50°56' E 001°20'211.8
2018-Apr-25 11:00N 50°57' E 001°22'611.5
2018-Apr-25 10:30N 51°01' E 001°28'511.0
2018-Apr-25 10:00N 51°05' E 001°34'510.4
2018-Apr-25 09:30N 51°09' E 001°40'510.7
2018-Apr-25 09:00N 51°13' E 001°46'510.4
2018-Apr-25 08:30N 51°17' E 001°51'611.1
2018-Apr-25 08:00N 51°22' E 001°56'5 9.8
2018-Apr-25 07:30N 51°25' E 002°01'611.9
2018-Apr-25 07:00N 51°23' E 002°09'611.7
2018-Apr-25 06:30N 51°20' E 002°18'612.0
2018-Apr-25 06:00N 51°22' E 002°27'612.1
2018-Apr-25 05:31N 51°23' E 002°36'5 9.9
2018-Apr-25 04:59N 51°22' E 002°45'611.5
2018-Apr-25 04:30N 51°23' E 002°54'612.3
2018-Apr-25 03:58N 51°25' E 003°03'511.7
2018-Apr-25 03:30N 51°24' E 003°12'612.2
2018-Apr-25 03:00N 51°25' E 003°22'612.5
2018-Apr-25 02:30N 51°25' E 003°32'5 9.7
2018-Apr-25 02:00N 51°26' E 003°40'713.4
2018-Apr-25 01:30N 51°22' E 003°47'713.2
2018-Apr-25 01:00N 51°23' E 003°57'3 6.8
2018-Apr-25 00:30N 51°24' E 004°02'612.2
2018-Apr-25 00:00N 51°24' E 004°12'4 8.8
2018-Apr-24 23:30N 51°21' E 004°17'0 0.0
2018-Apr-24 23:00N 51°21' E 004°17'0 0.0
2018-Apr-24 22:31N 51°21' E 004°17'1 1.0
2018-Apr-24 22:00N 51°21' E 004°18'0 0.3
2018-Apr-24 21:30N 51°21' E 004°18'1 2.9
2018-Apr-24 21:00N 51°19' E 004°19'3 5.4
2018-Apr-24 20:30N 51°17' E 004°21'1 2.2
2018-Apr-24 19:58N 51°16' E 004°20'0 0.0
2018-Apr-24 19:30N 51°16' E 004°20'0 0.0
2018-Apr-24 19:00N 51°16' E 004°20'0 0.0
2018-Apr-24 18:27N 51°16' E 004°20'0 0.0
2018-Apr-24 17:57N 51°16' E 004°20'0 0.0
2018-Apr-24 17:31N 51°16' E 004°20'0 0.0
2018-Apr-24 17:00N 51°16' E 004°20'0 0.0
2018-Apr-24 16:30N 51°16' E 004°20'0 0.0
2018-Apr-24 16:00N 51°16' E 004°20'0 0.0
2018-Apr-24 15:30N 51°16' E 004°20'0 0.0
2018-Apr-24 14:57N 51°16' E 004°20'0 0.0
2018-Apr-24 14:30N 51°16' E 004°20'0 0.0
2018-Apr-24 14:00N 51°16' E 004°20'0 0.0
2018-Apr-24 13:30N 51°16' E 004°20'0 0.0
2018-Apr-24 13:01N 51°16' E 004°20'0 0.0
2018-Apr-24 12:30N 51°16' E 004°20'0 0.0
2018-Apr-24 12:00N 51°16' E 004°20'0 0.0
2018-Apr-24 11:30N 51°16' E 004°20'0 0.0
2018-Apr-24 11:00N 51°16' E 004°20'0 0.0
2018-Apr-24 10:30N 51°16' E 004°20'0 0.0
2018-Apr-24 10:00N 51°16' E 004°20'0 0.0
2018-Apr-24 09:30N 51°16' E 004°20'0 0.0
2018-Apr-24 09:01N 51°16' E 004°20'0 0.0
2018-Apr-24 08:30N 51°16' E 004°20'0 0.0
2018-Apr-24 07:57N 51°16' E 004°20'0 0.0
2018-Apr-24 07:30N 51°16' E 004°20'0 0.0
2018-Apr-24 07:00N 51°16' E 004°20'0 0.0
2018-Apr-24 06:27N 51°16' E 004°20'0 0.0
2018-Apr-24 06:00N 51°16' E 004°20'0 0.0
2018-Apr-24 05:30N 51°16' E 004°20'0 0.0
2018-Apr-24 05:00N 51°16' E 004°20'0 0.0
2018-Apr-24 04:30N 51°16' E 004°20'0 0.0
2018-Apr-24 04:00N 51°16' E 004°20'0 0.0
2018-Apr-24 03:30N 51°16' E 004°20'0 0.0
2018-Apr-24 02:57N 51°16' E 004°20'0 0.0
2018-Apr-24 02:30N 51°16' E 004°20'0 0.0
2018-Apr-24 02:00N 51°16' E 004°20'0 0.0
2018-Apr-24 01:27N 51°16' E 004°20'0 0.0
2018-Apr-24 00:57N 51°16' E 004°20'0 0.0
2018-Apr-24 00:30N 51°16' E 004°20'0 0.0
2018-Apr-23 23:57N 51°16' E 004°20'0 0.0
2018-Apr-23 23:27N 51°16' E 004°20'0 0.0
2018-Apr-23 23:00N 51°16' E 004°20'0 0.0
2018-Apr-23 22:30N 51°16' E 004°20'0 0.0
2018-Apr-23 22:00N 51°16' E 004°20'0 0.0
2018-Apr-23 21:30N 51°16' E 004°20'0 0.0
2018-Apr-23 21:00N 51°16' E 004°20'0 0.0
2018-Apr-23 20:30N 51°16' E 004°20'0 0.0
2018-Apr-23 20:00N 51°16' E 004°20'0 0.0
2018-Apr-23 19:30N 51°16' E 004°20'0 0.0
2018-Apr-23 19:00N 51°16' E 004°20'0 0.0
2018-Apr-23 18:30N 51°16' E 004°20'0 0.0
2018-Apr-23 18:00N 51°16' E 004°20'0 0.0
2018-Apr-23 17:27N 51°16' E 004°20'0 0.0
2018-Apr-23 17:00N 51°16' E 004°20'0 0.0
2018-Apr-23 16:30N 51°16' E 004°20'0 0.0
2018-Apr-23 16:00N 51°16' E 004°20'0 0.0
2018-Apr-23 15:30N 51°16' E 004°20'0 0.0
2018-Apr-23 15:00N 51°16' E 004°20'0 0.0
2018-Apr-23 14:30N 51°16' E 004°20'0 0.0
2018-Apr-23 14:00N 51°16' E 004°20'0 0.0
2018-Apr-23 13:30N 51°16' E 004°20'0 0.0
2018-Apr-23 13:00N 51°16' E 004°20'0 0.0
2018-Apr-23 12:30N 51°16' E 004°20'0 0.0
2018-Apr-23 11:57N 51°16' E 004°20'0 0.0
2018-Apr-23 11:30N 51°16' E 004°20'0 0.0
2018-Apr-23 11:00N 51°16' E 004°20'0 0.0
2018-Apr-23 10:30N 51°16' E 004°20'0 0.0
2018-Apr-23 09:57N 51°16' E 004°20'0 0.0
2018-Apr-23 09:30N 51°16' E 004°20'0 0.0
2018-Apr-23 09:00N 51°16' E 004°20'0 0.0
2018-Apr-23 08:30N 51°16' E 004°20'0 0.0
2018-Apr-23 08:01N 51°16' E 004°20'1 1.8
2018-Apr-23 07:31N 51°17' E 004°20'0 0.2
2018-Apr-23 07:00N 51°17' E 004°20'1 1.3
2018-Apr-23 06:30N 51°17' E 004°19'510.2
2018-Apr-23 06:00N 51°21' E 004°14'611.8
2018-Apr-23 05:30N 51°22' E 004°05'510.5
2018-Apr-23 05:01N 51°25' E 003°58'714.9
2018-Apr-23 04:31N 51°21' E 003°47'815.2
2018-Apr-23 04:00N 51°25' E 003°37'713.1
2018-Apr-23 03:30N 51°30' E 003°29'714.2
2018-Apr-23 03:01N 51°35' E 003°23'714.1
2018-Apr-23 02:29N 51°41' E 003°15'4 7.8
2018-Apr-23 02:00N 51°44' E 003°12'4 6.9
2018-Apr-23 01:28N 51°46' E 003°07'3 5.8
2018-Apr-23 01:00N 51°48' E 003°03'1 2.6
2018-Apr-23 00:29N 51°48' E 003°06'1 2.3
2018-Apr-22 23:58N 51°49' E 003°07'1 1.9
2018-Apr-22 23:30N 51°49' E 003°07'2 3.4
2018-Apr-22 22:59N 51°51' E 003°05'2 4.3
2018-Apr-22 22:28N 51°50' E 003°02'2 4.7
2018-Apr-22 22:00N 51°49' E 002°58'3 5.6
2018-Apr-22 21:30N 51°49' E 002°54'4 6.5
2018-Apr-22 20:56N 51°48' E 002°48'4 7.7
2018-Apr-22 20:28N 51°47' E 002°43'3 7.3
2018-Apr-22 20:00N 51°45' E 002°38'4 7.6
2018-Apr-22 19:30N 51°42' E 002°34'4 7.6
2018-Apr-22 18:59N 51°39' E 002°29'4 7.8
2018-Apr-22 18:30N 51°36' E 002°25'4 7.9
2018-Apr-22 18:00N 51°33' E 002°21'4 8.1
2018-Apr-22 17:30N 51°30' E 002°17'510.6
2018-Apr-22 17:00N 51°26' E 002°12'5 9.2
2018-Apr-22 16:30N 51°22' E 002°12'510.5
2018-Apr-22 16:00N 51°21' E 002°20'510.7
2018-Apr-22 15:30N 51°23' E 002°28'611.2
2018-Apr-22 15:00N 51°23' E 002°37'611.8
2018-Apr-22 14:30N 51°22' E 002°47'713.3
2018-Apr-22 13:59N 51°23' E 002°58'613.3
2018-Apr-22 13:30N 51°24' E 003°08'713.8
2018-Apr-22 13:00N 51°25' E 003°19'713.9
2018-Apr-22 12:31N 51°25' E 003°30'612.7
2018-Apr-22 12:00N 51°27' E 003°40'714.7
2018-Apr-22 11:30N 51°21' E 003°48'713.8
2018-Apr-22 11:01N 51°25' E 003°57'510.0
2018-Apr-22 10:30N 51°22' E 004°05'611.8
2018-Apr-22 10:00N 51°21' E 004°14'611.1
2018-Apr-22 09:31N 51°17' E 004°19'1 1.3
2018-Apr-22 09:01N 51°17' E 004°20'0 0.1
2018-Apr-22 08:30N 51°17' E 004°20'1 2.7
2018-Apr-22 07:58N 51°16' E 004°22'0 0.0
2018-Apr-22 07:28N 51°16' E 004°22'0 0.0
2018-Apr-22 06:58N 51°16' E 004°22'0 0.0
2018-Apr-22 06:28N 51°16' E 004°22'0 0.0
2018-Apr-22 05:58N 51°16' E 004°22'0 0.0
2018-Apr-22 05:28N 51°16' E 004°22'0 0.0
2018-Apr-22 04:55N 51°16' E 004°22'0 0.0
2018-Apr-22 04:28N 51°16' E 004°22'0 0.0
2018-Apr-22 03:58N 51°16' E 004°22'0 0.0
2018-Apr-22 03:28N 51°16' E 004°22'0 0.0
2018-Apr-22 02:58N 51°16' E 004°22'0 0.0
2018-Apr-22 02:28N 51°16' E 004°22'0 0.0
2018-Apr-22 01:58N 51°16' E 004°22'0 0.0
2018-Apr-22 01:28N 51°16' E 004°22'0 0.0
2018-Apr-22 00:58N 51°16' E 004°22'0 0.0
2018-Apr-22 00:28N 51°16' E 004°22'0 0.0
2018-Apr-21 23:58N 51°16' E 004°22'0 0.0
2018-Apr-21 23:28N 51°16' E 004°22'0 0.0
2018-Apr-21 22:58N 51°16' E 004°22'0 0.0
2018-Apr-21 22:28N 51°16' E 004°22'0 0.0
2018-Apr-21 21:58N 51°16' E 004°22'0 0.0
2018-Apr-21 21:28N 51°16' E 004°22'0 0.0
2018-Apr-21 20:58N 51°16' E 004°22'0 0.0
2018-Apr-21 20:31N 51°16' E 004°22'0 0.0
2018-Apr-21 19:58N 51°16' E 004°22'0 0.0
2018-Apr-21 19:31N 51°16' E 004°22'0 0.0
2018-Apr-21 18:58N 51°16' E 004°22'0 0.0
2018-Apr-21 18:28N 51°16' E 004°22'0 0.0
2018-Apr-21 17:58N 51°16' E 004°22'0 0.0
2018-Apr-21 17:31N 51°16' E 004°22'0 0.0
2018-Apr-21 16:58N 51°16' E 004°22'0 0.0
2018-Apr-21 16:25N 51°16' E 004°22'0 0.0
2018-Apr-21 16:01N 51°16' E 004°22'0 0.0
2018-Apr-21 15:28N 51°16' E 004°22'0 0.0
2018-Apr-21 14:58N 51°16' E 004°22'0 0.0
2018-Apr-21 14:31N 51°16' E 004°22'0 0.0
2018-Apr-21 13:58N 51°16' E 004°22'0 0.0
2018-Apr-21 13:31N 51°16' E 004°22'0 0.0
2018-Apr-21 12:58N 51°16' E 004°22'0 0.0
2018-Apr-21 12:30N 51°16' E 004°22'0 0.0
2018-Apr-21 12:01N 51°16' E 004°22'0 0.0
2018-Apr-21 11:27N 51°16' E 004°22'0 0.0
2018-Apr-21 10:58N 51°16' E 004°22'0 0.0
2018-Apr-21 10:31N 51°16' E 004°22'0 0.0
2018-Apr-21 10:01N 51°16' E 004°22'0 0.0
2018-Apr-21 09:27N 51°16' E 004°22'0 0.0
2018-Apr-21 08:54N 51°16' E 004°22'0 0.0
2018-Apr-21 08:30N 51°16' E 004°22'0 0.4
2018-Apr-21 08:00N 51°16' E 004°21'3 5.0
2018-Apr-21 07:30N 51°18' E 004°20'3 6.2
2018-Apr-21 07:00N 51°21' E 004°18'0 0.4
2018-Apr-21 06:30N 51°21' E 004°17'0 0.0
2018-Apr-21 06:00N 51°21' E 004°17'0 1.0
2018-Apr-21 05:30N 51°21' E 004°16'4 9.0
2018-Apr-21 05:01N 51°24' E 004°11'611.5
2018-Apr-21 04:31N 51°24' E 004°02'4 8.3
2018-Apr-21 04:01N 51°22' E 003°56'714.6
2018-Apr-21 03:31N 51°22' E 003°44'611.9
2018-Apr-21 03:00N 51°26' E 003°37'611.9
2018-Apr-21 02:30N 51°30' E 003°29'713.7
2018-Apr-21 02:01N 51°35' E 003°23'713.4
2018-Apr-21 01:30N 51°41' E 003°16'4 8.5
2018-Apr-21 01:00N 51°45' E 003°14'612.7
2018-Apr-21 00:30N 51°51' E 003°17'714.1
2018-Apr-21 00:00N 51°58' E 003°19'715.0
2018-Apr-20 23:30N 52°05' E 003°21'814.9
2018-Apr-20 23:00N 52°12' E 003°22'714.9
2018-Apr-20 22:30N 52°20' E 003°25'714.6
2018-Apr-20 22:01N 52°27' E 003°28'714.1
2018-Apr-20 21:30N 52°34' E 003°30'612.8
2018-Apr-20 21:00N 52°39' E 003°34'612.9
2018-Apr-20 20:30N 52°45' E 003°40'612.5
2018-Apr-20 20:00N 52°50' E 003°46'612.1
2018-Apr-20 19:30N 52°54' E 003°54'612.0
2018-Apr-20 18:59N 52°58' E 004°01'612.0
2018-Apr-20 18:31N 53°02' E 004°08'812.3
2018-Apr-20 17:50N 53°07' E 004°19'412.2
2018-Apr-20 17:31N 53°09' E 004°24'713.2
2018-Apr-20 17:01N 53°16' E 004°28'2113.7
2018-Apr-20 15:28N 53°36' E 004°38'23313.1
2018-Apr-19 21:36N 57°05' E 007°40'313.0
2018-Apr-19 21:23N 57°07' E 007°44'513.0
2018-Apr-19 20:59N 57°10' E 007°52'612.9
2018-Apr-19 20:31N 57°13' E 008°01'612.8
2018-Apr-19 20:00N 57°17' E 008°11'612.7
2018-Apr-19 19:30N 57°21' E 008°20'1012.8
2018-Apr-19 18:44N 57°26' E 008°35'312.8
2018-Apr-19 18:30N 57°28' E 008°40'612.8
2018-Apr-19 18:00N 57°32' E 008°49'812.7
2018-Apr-19 17:23N 57°36' E 009°01'812.7
2018-Apr-19 16:47N 57°41' E 009°12'512.8
2018-Apr-19 16:24N 57°45' E 009°19'512.4
2018-Apr-19 15:59N 57°47' E 009°27'612.6
2018-Apr-19 15:31N 57°51' E 009°36'612.5
2018-Apr-19 15:00N 57°52' E 009°48'713.5
2018-Apr-19 14:28N 57°52' E 010°01'713.9
2018-Apr-19 14:00N 57°52' E 010°14'813.7
2018-Apr-19 13:26N 57°52' E 010°28'613.6
2018-Apr-19 13:00N 57°51' E 010°39'713.3
2018-Apr-19 12:30N 57°51' E 010°52'613.0
2018-Apr-19 12:00N 57°52' E 011°04'612.9
2018-Apr-19 11:30N 57°52' E 011°16'612.1
2018-Apr-19 11:00N 57°52' E 011°27'612.2
2018-Apr-19 10:30N 57°55' E 011°37'612.5
2018-Apr-19 10:00N 57°59' E 011°45'611.5
2018-Apr-19 09:30N 58°05' E 011°48'1 1.4
2018-Apr-19 08:55N 58°05' E 011°49'0 0.0
2018-Apr-19 08:28N 58°05' E 011°49'0 0.0
2018-Apr-19 07:52N 58°05' E 011°49'0 0.0
2018-Apr-19 07:28N 58°05' E 011°49'0 0.0
2018-Apr-19 06:58N 58°05' E 011°49'0 0.0
2018-Apr-19 06:28N 58°05' E 011°49'0 0.0
2018-Apr-19 05:58N 58°05' E 011°49'0 0.0
2018-Apr-19 05:28N 58°05' E 011°49'0 0.0
2018-Apr-19 04:58N 58°05' E 011°49'0 0.0
2018-Apr-19 04:25N 58°05' E 011°49'0 0.0
2018-Apr-19 03:52N 58°05' E 011°49'0 0.0
2018-Apr-19 03:19N 58°05' E 011°49'0 0.0
2018-Apr-19 02:58N 58°05' E 011°49'0 0.0
2018-Apr-19 02:28N 58°05' E 011°49'0 0.0
2018-Apr-19 01:58N 58°05' E 011°49'0 0.0
2018-Apr-19 01:28N 58°05' E 011°49'0 0.0
2018-Apr-19 00:55N 58°05' E 011°49'0 0.0
2018-Apr-19 00:28N 58°05' E 011°49'0 0.0
2018-Apr-18 23:58N 58°05' E 011°49'0 0.0
2018-Apr-18 23:28N 58°05' E 011°49'0 0.0
2018-Apr-18 22:58N 58°05' E 011°49'0 0.0
2018-Apr-18 22:28N 58°05' E 011°49'0 0.0
2018-Apr-18 21:55N 58°05' E 011°49'0 0.0
2018-Apr-18 21:19N 58°05' E 011°49'0 0.0
2018-Apr-18 20:55N 58°05' E 011°49'0 0.0
2018-Apr-18 20:28N 58°05' E 011°49'0 0.0
2018-Apr-18 19:58N 58°05' E 011°49'0 0.0
2018-Apr-18 19:28N 58°05' E 011°49'0 0.0
2018-Apr-18 18:55N 58°05' E 011°49'0 0.0
2018-Apr-18 18:28N 58°05' E 011°49'0 0.0
2018-Apr-18 17:58N 58°05' E 011°49'0 0.0
2018-Apr-18 17:22N 58°05' E 011°49'0 0.0
2018-Apr-18 16:52N 58°05' E 011°49'0 0.0
2018-Apr-18 16:22N 58°05' E 011°49'0 0.0
2018-Apr-18 15:58N 58°05' E 011°49'0 0.0
2018-Apr-18 15:28N 58°05' E 011°49'0 0.0
2018-Apr-18 14:58N 58°05' E 011°49'0 0.0
2018-Apr-18 14:28N 58°05' E 011°49'0 0.0
2018-Apr-18 13:58N 58°05' E 011°49'0 0.0
2018-Apr-18 13:28N 58°05' E 011°49'0 0.0
2018-Apr-18 12:55N 58°05' E 011°49'0 0.0
2018-Apr-18 12:25N 58°05' E 011°49'0 0.0
2018-Apr-18 11:58N 58°05' E 011°49'0 0.0
2018-Apr-18 11:25N 58°05' E 011°49'0 0.0
2018-Apr-18 10:58N 58°05' E 011°49'0 0.0
2018-Apr-18 10:28N 58°05' E 011°49'0 0.0
2018-Apr-18 09:58N 58°05' E 011°49'0 0.0
2018-Apr-18 09:28N 58°05' E 011°49'0 0.0
2018-Apr-18 08:58N 58°05' E 011°49'0 0.0
2018-Apr-18 08:28N 58°05' E 011°49'0 0.0
2018-Apr-18 08:00N 58°05' E 011°49'1 1.7
2018-Apr-18 07:30N 58°05' E 011°48'611.7
2018-Apr-18 07:00N 57°59' E 011°45'713.9
2018-Apr-18 06:31N 57°55' E 011°35'612.8
2018-Apr-18 06:01N 57°50' E 011°26'4 8.3
2018-Apr-18 05:30N 57°54' E 011°22'2 3.9
2018-Apr-18 04:59N 57°56' E 011°21'0 0.0
2018-Apr-18 04:30N 57°56' E 011°21'0 0.1
2018-Apr-18 04:00N 57°56' E 011°21'0 0.0
2018-Apr-18 03:30N 57°56' E 011°21'0 0.0
2018-Apr-18 03:00N 57°56' E 011°21'0 0.0
2018-Apr-18 02:30N 57°56' E 011°21'0 0.0
2018-Apr-18 02:00N 57°56' E 011°21'0 0.0
2018-Apr-18 01:30N 57°56' E 011°21'0 0.0
2018-Apr-18 01:00N 57°56' E 011°21'0 0.0
2018-Apr-18 00:30N 57°56' E 011°21'0 0.0
2018-Apr-18 00:00N 57°56' E 011°21'0 0.0
2018-Apr-17 23:30N 57°56' E 011°21'0 0.0
2018-Apr-17 23:00N 57°56' E 011°21'0 0.0
2018-Apr-17 22:30N 57°56' E 011°21'0 0.0
2018-Apr-17 22:00N 57°56' E 011°21'0 0.0
2018-Apr-17 21:30N 57°56' E 011°21'0 0.0
2018-Apr-17 21:00N 57°56' E 011°21'0 0.0
2018-Apr-17 20:30N 57°56' E 011°21'0 0.0
2018-Apr-17 20:00N 57°56' E 011°21'0 0.0
2018-Apr-17 19:30N 57°56' E 011°21'0 0.0
2018-Apr-17 19:00N 57°56' E 011°21'0 0.0
2018-Apr-17 18:30N 57°56' E 011°21'0 0.0
2018-Apr-17 18:00N 57°56' E 011°21'0 0.0
2018-Apr-17 17:30N 57°56' E 011°21'0 0.0
2018-Apr-17 17:00N 57°56' E 011°21'0 0.0
2018-Apr-17 16:30N 57°56' E 011°21'0 0.0
2018-Apr-17 16:00N 57°56' E 011°21'0 0.0
2018-Apr-17 15:30N 57°56' E 011°21'1 1.7
2018-Apr-17 15:00N 57°55' E 011°21'510.7
2018-Apr-17 14:30N 57°53' E 011°31'713.7
2018-Apr-17 14:00N 57°57' E 011°42'713.4
2018-Apr-17 13:30N 58°03' E 011°47'612.0
2018-Apr-17 13:00N 58°09' E 011°50'813.3
2018-Apr-17 12:22N 58°17' E 011°48'  
Track history (hours):
 
Tides and Currents Weather Stations Pressure Air Temp Water Temp Dewpoint Dewpoint Depression Visibility Wind Speed Wind Dir Waves Ship Positions

Capewater

Last reported at 2018-Apr-27 08:29 UTC. Time now 2018-Apr-27 08:43 UTC.
Position N 49°28' E 000°14'.

Length 100 m; draft 7.7 m.

Type: Tanker. MMSI: 246346000.

Date/timePositionNaut miles runAvg speedWind from/ knotsBaromVisibWave heightAir tempDewpointWater temp
2018-Apr-27 08:29N 49°28' E 000°14'0 0.0
2018-Apr-27 07:59N 49°28' E 000°14'0 0.0
2018-Apr-27 07:30N 49°28' E 000°14'0 0.0
2018-Apr-27 06:59N 49°28' E 000°14'0 0.0
2018-Apr-27 06:30N 49°28' E 000°14'0 0.0
2018-Apr-27 06:00N 49°28' E 000°14'0 0.0
2018-Apr-27 05:30N 49°28' E 000°14'0 0.0
2018-Apr-27 05:00N 49°28' E 000°14'0 0.0
2018-Apr-27 04:29N 49°28' E 000°14'0 0.0
2018-Apr-27 03:59N 49°28' E 000°14'0 0.0
2018-Apr-27 03:29N 49°28' E 000°14'0 0.0
2018-Apr-27 02:59N 49°28' E 000°14'0 0.0
2018-Apr-27 02:29N 49°28' E 000°14'0 0.0
2018-Apr-27 01:59N 49°28' E 000°14'0 0.0
2018-Apr-27 01:30N 49°28' E 000°14'0 0.0
2018-Apr-27 00:59N 49°28' E 000°14'0 0.0
2018-Apr-27 00:30N 49°28' E 000°14'0 0.0
2018-Apr-27 00:00N 49°28' E 000°14'0 0.0
2018-Apr-26 23:29N 49°28' E 000°14'0 0.0
2018-Apr-26 22:59N 49°28' E 000°14'0 0.0
2018-Apr-26 22:29N 49°28' E 000°14'0 0.0
2018-Apr-26 22:00N 49°28' E 000°14'0 0.0
2018-Apr-26 21:29N 49°28' E 000°14'0 0.0
2018-Apr-26 20:59N 49°28' E 000°14'0 0.0
2018-Apr-26 20:29N 49°28' E 000°14'0 0.0
2018-Apr-26 19:59N 49°28' E 000°14'0 0.0
2018-Apr-26 19:29N 49°28' E 000°14'0 0.0
2018-Apr-26 19:00N 49°28' E 000°14'0 0.0
2018-Apr-26 18:29N 49°28' E 000°14'0 0.0
2018-Apr-26 17:59N 49°28' E 000°14'0 0.0
2018-Apr-26 17:29N 49°28' E 000°14'0 0.0
2018-Apr-26 16:59N 49°28' E 000°14'0 0.0
2018-Apr-26 16:29N 49°28' E 000°14'0 0.0
2018-Apr-26 15:59N 49°28' E 000°14'0 0.0
2018-Apr-26 15:29N 49°28' E 000°14'0 0.0
2018-Apr-26 14:59N 49°28' E 000°14'0 0.0
2018-Apr-26 14:29N 49°28' E 000°14'0 0.0
2018-Apr-26 13:59N 49°28' E 000°14'0 0.0
2018-Apr-26 13:29N 49°28' E 000°14'0 0.0
2018-Apr-26 13:00N 49°28' E 000°14'0 0.0
2018-Apr-26 12:29N 49°28' E 000°14'0 0.0
2018-Apr-26 11:59N 49°28' E 000°14'0 0.0
2018-Apr-26 11:29N 49°28' E 000°14'2 3.8
2018-Apr-26 11:01N 49°29' E 000°11'1 2.3
2018-Apr-26 10:30N 49°29' E 000°10'1 2.6
2018-Apr-26 10:00N 49°29' E 000°08'0 0.1
2018-Apr-26 09:31N 49°29' E 000°08'1 1.9
2018-Apr-26 09:00N 49°29' E 000°07'0 0.2
2018-Apr-26 08:30N 49°29' E 000°07'1 1.3
2018-Apr-26 08:00N 49°29' E 000°06'510.5
2018-Apr-26 07:31N 49°30' W 000°02'2 2.9
2018-Apr-26 06:59N 49°30' W 000°04'0 0.0
2018-Apr-26 06:29N 49°30' W 000°04'0 0.0
2018-Apr-26 05:59N 49°30' W 000°04'0 0.0
2018-Apr-26 05:29N 49°30' W 000°04'0 0.0
2018-Apr-26 04:59N 49°30' W 000°04'0 0.0
2018-Apr-26 04:29N 49°30' W 000°04'0 0.0
2018-Apr-26 03:59N 49°30' W 000°04'0 0.0
2018-Apr-26 03:29N 49°30' W 000°04'0 0.0
2018-Apr-26 02:59N 49°30' W 000°04'0 0.0
2018-Apr-26 02:29N 49°30' W 000°04'0 0.0
2018-Apr-26 01:59N 49°30' W 000°04'0 0.0
2018-Apr-26 01:29N 49°30' W 000°04'0 0.0
2018-Apr-26 00:59N 49°30' W 000°04'0 0.0
2018-Apr-26 00:29N 49°30' W 000°04'0 0.0
2018-Apr-25 23:59N 49°30' W 000°04'0 0.0
2018-Apr-25 23:29N 49°30' W 000°04'0 0.0
2018-Apr-25 22:59N 49°30' W 000°04'0 0.0
2018-Apr-25 22:26N 49°30' W 000°04'0 0.2
2018-Apr-25 22:00N 49°30' W 000°05'4 8.1
2018-Apr-25 21:30N 49°32' W 000°10'611.6
2018-Apr-25 21:00N 49°38' W 000°11'612.3
2018-Apr-25 20:30N 49°44' W 000°10'611.7
2018-Apr-25 20:00N 49°50' W 000°10'611.4
2018-Apr-25 19:30N 49°55' W 000°09'611.0
2018-Apr-25 19:00N 50°01' W 000°09'510.4
2018-Apr-25 18:30N 50°06' W 000°07'5 9.5
2018-Apr-25 18:00N 50°11' W 000°06'5 9.7
2018-Apr-25 17:30N 50°16' W 000°05'510.4
2018-Apr-25 17:00N 50°21' W 000°05'510.1
2018-Apr-25 16:30N 50°26' W 000°05'5 9.1
2018-Apr-25 16:00N 50°28' E 000°02'510.3
2018-Apr-25 15:30N 50°29' E 000°09'510.9
2018-Apr-25 15:00N 50°31' E 000°18'611.5
2018-Apr-25 14:29N 50°33' E 000°26'612.1
2018-Apr-25 14:00N 50°35' E 000°35'612.4
2018-Apr-25 13:30N 50°38' E 000°44'612.6
2018-Apr-25 13:00N 50°41' E 000°52'612.7
2018-Apr-25 12:30N 50°45' E 000°59'1712.2
2018-Apr-25 11:08N 50°56' E 001°20'211.8
2018-Apr-25 11:00N 50°57' E 001°22'611.5
2018-Apr-25 10:30N 51°01' E 001°28'511.0
2018-Apr-25 10:00N 51°05' E 001°34'510.4
2018-Apr-25 09:30N 51°09' E 001°40'510.7
2018-Apr-25 09:00N 51°13' E 001°46'510.4
2018-Apr-25 08:30N 51°17' E 001°51'611.1
2018-Apr-25 08:00N 51°22' E 001°56'5 9.8
2018-Apr-25 07:30N 51°25' E 002°01'611.9
2018-Apr-25 07:00N 51°23' E 002°09'611.7
2018-Apr-25 06:30N 51°20' E 002°18'612.0
2018-Apr-25 06:00N 51°22' E 002°27'612.1
2018-Apr-25 05:31N 51°23' E 002°36'5 9.9
2018-Apr-25 04:59N 51°22' E 002°45'611.5
2018-Apr-25 04:30N 51°23' E 002°54'612.3
2018-Apr-25 03:58N 51°25' E 003°03'511.7
2018-Apr-25 03:30N 51°24' E 003°12'612.2
2018-Apr-25 03:00N 51°25' E 003°22'612.5
2018-Apr-25 02:30N 51°25' E 003°32'5 9.7
2018-Apr-25 02:00N 51°26' E 003°40'713.4
2018-Apr-25 01:30N 51°22' E 003°47'713.2
2018-Apr-25 01:00N 51°23' E 003°57'3 6.8
2018-Apr-25 00:30N 51°24' E 004°02'612.2
2018-Apr-25 00:00N 51°24' E 004°12'4 8.8
2018-Apr-24 23:30N 51°21' E 004°17'0 0.0
2018-Apr-24 23:00N 51°21' E 004°17'0 0.0
2018-Apr-24 22:31N 51°21' E 004°17'1 1.0
2018-Apr-24 22:00N 51°21' E 004°18'0 0.3
2018-Apr-24 21:30N 51°21' E 004°18'1 2.9
2018-Apr-24 21:00N 51°19' E 004°19'3 5.4
2018-Apr-24 20:30N 51°17' E 004°21'1 2.2
2018-Apr-24 19:58N 51°16' E 004°20'0 0.0
2018-Apr-24 19:30N 51°16' E 004°20'0 0.0
2018-Apr-24 19:00N 51°16' E 004°20'0 0.0
2018-Apr-24 18:27N 51°16' E 004°20'0 0.0
2018-Apr-24 17:57N 51°16' E 004°20'0 0.0
2018-Apr-24 17:31N 51°16' E 004°20'0 0.0
2018-Apr-24 17:00N 51°16' E 004°20'0 0.0
2018-Apr-24 16:30N 51°16' E 004°20'0 0.0
2018-Apr-24 16:00N 51°16' E 004°20'0 0.0
2018-Apr-24 15:30N 51°16' E 004°20'0 0.0
2018-Apr-24 14:57N 51°16' E 004°20'0 0.0
2018-Apr-24 14:30N 51°16' E 004°20'0 0.0
2018-Apr-24 14:00N 51°16' E 004°20'0 0.0
2018-Apr-24 13:30N 51°16' E 004°20'0 0.0
2018-Apr-24 13:01N 51°16' E 004°20'0 0.0
2018-Apr-24 12:30N 51°16' E 004°20'0 0.0
2018-Apr-24 12:00N 51°16' E 004°20'0 0.0
2018-Apr-24 11:30N 51°16' E 004°20'0 0.0
2018-Apr-24 11:00N 51°16' E 004°20'0 0.0
2018-Apr-24 10:30N 51°16' E 004°20'0 0.0
2018-Apr-24 10:00N 51°16' E 004°20'0 0.0
2018-Apr-24 09:30N 51°16' E 004°20'0 0.0
2018-Apr-24 09:01N 51°16' E 004°20'0 0.0
2018-Apr-24 08:30N 51°16' E 004°20'0 0.0
2018-Apr-24 07:57N 51°16' E 004°20'0 0.0
2018-Apr-24 07:30N 51°16' E 004°20'0 0.0
2018-Apr-24 07:00N 51°16' E 004°20'0 0.0
2018-Apr-24 06:27N 51°16' E 004°20'0 0.0
2018-Apr-24 06:00N 51°16' E 004°20'0 0.0
2018-Apr-24 05:30N 51°16' E 004°20'0 0.0
2018-Apr-24 05:00N 51°16' E 004°20'0 0.0
2018-Apr-24 04:30N 51°16' E 004°20'0 0.0
2018-Apr-24 04:00N 51°16' E 004°20'0 0.0
2018-Apr-24 03:30N 51°16' E 004°20'0 0.0
2018-Apr-24 02:57N 51°16' E 004°20'0 0.0
2018-Apr-24 02:30N 51°16' E 004°20'0 0.0
2018-Apr-24 02:00N 51°16' E 004°20'0 0.0
2018-Apr-24 01:27N 51°16' E 004°20'0 0.0
2018-Apr-24 00:57N 51°16' E 004°20'0 0.0
2018-Apr-24 00:30N 51°16' E 004°20'0 0.0
2018-Apr-23 23:57N 51°16' E 004°20'0 0.0
2018-Apr-23 23:27N 51°16' E 004°20'0 0.0
2018-Apr-23 23:00N 51°16' E 004°20'0 0.0
2018-Apr-23 22:30N 51°16' E 004°20'0 0.0
2018-Apr-23 22:00N 51°16' E 004°20'0 0.0
2018-Apr-23 21:30N 51°16' E 004°20'0 0.0
2018-Apr-23 21:00N 51°16' E 004°20'0 0.0
2018-Apr-23 20:30N 51°16' E 004°20'0 0.0
2018-Apr-23 20:00N 51°16' E 004°20'0 0.0
2018-Apr-23 19:30N 51°16' E 004°20'0 0.0
2018-Apr-23 19:00N 51°16' E 004°20'0 0.0
2018-Apr-23 18:30N 51°16' E 004°20'0 0.0
2018-Apr-23 18:00N 51°16' E 004°20'0 0.0
2018-Apr-23 17:27N 51°16' E 004°20'0 0.0
2018-Apr-23 17:00N 51°16' E 004°20'0 0.0
2018-Apr-23 16:30N 51°16' E 004°20'0 0.0
2018-Apr-23 16:00N 51°16' E 004°20'0 0.0
2018-Apr-23 15:30N 51°16' E 004°20'0 0.0
2018-Apr-23 15:00N 51°16' E 004°20'0 0.0
2018-Apr-23 14:30N 51°16' E 004°20'0 0.0
2018-Apr-23 14:00N 51°16' E 004°20'0 0.0
2018-Apr-23 13:30N 51°16' E 004°20'0 0.0
2018-Apr-23 13:00N 51°16' E 004°20'0 0.0
2018-Apr-23 12:30N 51°16' E 004°20'0 0.0
2018-Apr-23 11:57N 51°16' E 004°20'0 0.0
2018-Apr-23 11:30N 51°16' E 004°20'0 0.0
2018-Apr-23 11:00N 51°16' E 004°20'0 0.0
2018-Apr-23 10:30N 51°16' E 004°20'0 0.0
2018-Apr-23 09:57N 51°16' E 004°20'0 0.0
2018-Apr-23 09:30N 51°16' E 004°20'0 0.0
2018-Apr-23 09:00N 51°16' E 004°20'0 0.0
2018-Apr-23 08:30N 51°16' E 004°20'0 0.0
2018-Apr-23 08:01N 51°16' E 004°20'1 1.8
2018-Apr-23 07:31N 51°17' E 004°20'0 0.2
2018-Apr-23 07:00N 51°17' E 004°20'1 1.3
2018-Apr-23 06:30N 51°17' E 004°19'510.2
2018-Apr-23 06:00N 51°21' E 004°14'611.8
2018-Apr-23 05:30N 51°22' E 004°05'510.5
2018-Apr-23 05:01N 51°25' E 003°58'714.9
2018-Apr-23 04:31N 51°21' E 003°47'815.2
2018-Apr-23 04:00N 51°25' E 003°37'713.1
2018-Apr-23 03:30N 51°30' E 003°29'714.2
2018-Apr-23 03:01N 51°35' E 003°23'714.1
2018-Apr-23 02:29N 51°41' E 003°15'4 7.8
2018-Apr-23 02:00N 51°44' E 003°12'4 6.9
2018-Apr-23 01:28N 51°46' E 003°07'3 5.8
2018-Apr-23 01:00N 51°48' E 003°03'1 2.6
2018-Apr-23 00:29N 51°48' E 003°06'1 2.3
2018-Apr-22 23:58N 51°49' E 003°07'1 1.9
2018-Apr-22 23:30N 51°49' E 003°07'2 3.4
2018-Apr-22 22:59N 51°51' E 003°05'2 4.3
2018-Apr-22 22:28N 51°50' E 003°02'2 4.7
2018-Apr-22 22:00N 51°49' E 002°58'3 5.6
2018-Apr-22 21:30N 51°49' E 002°54'4 6.5
2018-Apr-22 20:56N 51°48' E 002°48'4 7.7
2018-Apr-22 20:28N 51°47' E 002°43'3 7.3
2018-Apr-22 20:00N 51°45' E 002°38'4 7.6
2018-Apr-22 19:30N 51°42' E 002°34'4 7.6
2018-Apr-22 18:59N 51°39' E 002°29'4 7.8
2018-Apr-22 18:30N 51°36' E 002°25'4 7.9
2018-Apr-22 18:00N 51°33' E 002°21'4 8.1
2018-Apr-22 17:30N 51°30' E 002°17'510.6
2018-Apr-22 17:00N 51°26' E 002°12'5 9.2
2018-Apr-22 16:30N 51°22' E 002°12'510.5
2018-Apr-22 16:00N 51°21' E 002°20'510.7
2018-Apr-22 15:30N 51°23' E 002°28'611.2
2018-Apr-22 15:00N 51°23' E 002°37'611.8
2018-Apr-22 14:30N 51°22' E 002°47'713.3
2018-Apr-22 13:59N 51°23' E 002°58'613.3
2018-Apr-22 13:30N 51°24' E 003°08'713.8
2018-Apr-22 13:00N 51°25' E 003°19'713.9
2018-Apr-22 12:31N 51°25' E 003°30'612.7
2018-Apr-22 12:00N 51°27' E 003°40'714.7
2018-Apr-22 11:30N 51°21' E 003°48'713.8
2018-Apr-22 11:01N 51°25' E 003°57'510.0
2018-Apr-22 10:30N 51°22' E 004°05'611.8
2018-Apr-22 10:00N 51°21' E 004°14'611.1
2018-Apr-22 09:31N 51°17' E 004°19'1 1.3
2018-Apr-22 09:01N 51°17' E 004°20'0 0.1
2018-Apr-22 08:30N 51°17' E 004°20'1 2.7
2018-Apr-22 07:58N 51°16' E 004°22'0 0.0
2018-Apr-22 07:28N 51°16' E 004°22'0 0.0
2018-Apr-22 06:58N 51°16' E 004°22'0 0.0
2018-Apr-22 06:28N 51°16' E 004°22'0 0.0
2018-Apr-22 05:58N 51°16' E 004°22'0 0.0
2018-Apr-22 05:28N 51°16' E 004°22'0 0.0
2018-Apr-22 04:55N 51°16' E 004°22'0 0.0
2018-Apr-22 04:28N 51°16' E 004°22'0 0.0
2018-Apr-22 03:58N 51°16' E 004°22'0 0.0
2018-Apr-22 03:28N 51°16' E 004°22'0 0.0
2018-Apr-22 02:58N 51°16' E 004°22'0 0.0
2018-Apr-22 02:28N 51°16' E 004°22'0 0.0
2018-Apr-22 01:58N 51°16' E 004°22'0 0.0
2018-Apr-22 01:28N 51°16' E 004°22'0 0.0
2018-Apr-22 00:58N 51°16' E 004°22'0 0.0
2018-Apr-22 00:28N 51°16' E 004°22'0 0.0
2018-Apr-21 23:58N 51°16' E 004°22'0 0.0
2018-Apr-21 23:28N 51°16' E 004°22'0 0.0
2018-Apr-21 22:58N 51°16' E 004°22'0 0.0
2018-Apr-21 22:28N 51°16' E 004°22'0 0.0
2018-Apr-21 21:58N 51°16' E 004°22'0 0.0
2018-Apr-21 21:28N 51°16' E 004°22'0 0.0
2018-Apr-21 20:58N 51°16' E 004°22'0 0.0
2018-Apr-21 20:31N 51°16' E 004°22'0 0.0
2018-Apr-21 19:58N 51°16' E 004°22'0 0.0
2018-Apr-21 19:31N 51°16' E 004°22'0 0.0
2018-Apr-21 18:58N 51°16' E 004°22'0 0.0
2018-Apr-21 18:28N 51°16' E 004°22'0 0.0
2018-Apr-21 17:58N 51°16' E 004°22'0 0.0
2018-Apr-21 17:31N 51°16' E 004°22'0 0.0
2018-Apr-21 16:58N 51°16' E 004°22'0 0.0
2018-Apr-21 16:25N 51°16' E 004°22'0 0.0
2018-Apr-21 16:01N 51°16' E 004°22'0 0.0
2018-Apr-21 15:28N 51°16' E 004°22'0 0.0
2018-Apr-21 14:58N 51°16' E 004°22'0 0.0
2018-Apr-21 14:31N 51°16' E 004°22'0 0.0
2018-Apr-21 13:58N 51°16' E 004°22'0 0.0
2018-Apr-21 13:31N 51°16' E 004°22'0 0.0
2018-Apr-21 12:58N 51°16' E 004°22'0 0.0
2018-Apr-21 12:30N 51°16' E 004°22'0 0.0
2018-Apr-21 12:01N 51°16' E 004°22'0 0.0
2018-Apr-21 11:27N 51°16' E 004°22'0 0.0
2018-Apr-21 10:58N 51°16' E 004°22'0 0.0
2018-Apr-21 10:31N 51°16' E 004°22'0 0.0
2018-Apr-21 10:01N 51°16' E 004°22'0 0.0
2018-Apr-21 09:27N 51°16' E 004°22'0 0.0
2018-Apr-21 08:54N 51°16' E 004°22'0 0.0
2018-Apr-21 08:30N 51°16' E 004°22'0 0.4
2018-Apr-21 08:00N 51°16' E 004°21'3 5.0
2018-Apr-21 07:30N 51°18' E 004°20'3 6.2
2018-Apr-21 07:00N 51°21' E 004°18'0 0.4
2018-Apr-21 06:30N 51°21' E 004°17'0 0.0
2018-Apr-21 06:00N 51°21' E 004°17'0 1.0
2018-Apr-21 05:30N 51°21' E 004°16'4 9.0
2018-Apr-21 05:01N 51°24' E 004°11'611.5
2018-Apr-21 04:31N 51°24' E 004°02'4 8.3
2018-Apr-21 04:01N 51°22' E 003°56'714.6
2018-Apr-21 03:31N 51°22' E 003°44'611.9
2018-Apr-21 03:00N 51°26' E 003°37'611.9
2018-Apr-21 02:30N 51°30' E 003°29'713.7
2018-Apr-21 02:01N 51°35' E 003°23'713.4
2018-Apr-21 01:30N 51°41' E 003°16'4 8.5
2018-Apr-21 01:00N 51°45' E 003°14'612.7
2018-Apr-21 00:30N 51°51' E 003°17'714.1
2018-Apr-21 00:00N 51°58' E 003°19'715.0
2018-Apr-20 23:30N 52°05' E 003°21'814.9
2018-Apr-20 23:00N 52°12' E 003°22'714.9
2018-Apr-20 22:30N 52°20' E 003°25'714.6
2018-Apr-20 22:01N 52°27' E 003°28'714.1
2018-Apr-20 21:30N 52°34' E 003°30'612.8
2018-Apr-20 21:00N 52°39' E 003°34'612.9
2018-Apr-20 20:30N 52°45' E 003°40'612.5
2018-Apr-20 20:00N 52°50' E 003°46'612.1
2018-Apr-20 19:30N 52°54' E 003°54'612.0
2018-Apr-20 18:59N 52°58' E 004°01'612.0
2018-Apr-20 18:31N 53°02' E 004°08'812.3
2018-Apr-20 17:50N 53°07' E 004°19'412.2
2018-Apr-20 17:31N 53°09' E 004°24'713.2
2018-Apr-20 17:01N 53°16' E 004°28'2113.7
2018-Apr-20 15:28N 53°36' E 004°38'23313.1
2018-Apr-19 21:36N 57°05' E 007°40'313.0
2018-Apr-19 21:23N 57°07' E 007°44'513.0
2018-Apr-19 20:59N 57°10' E 007°52'612.9
2018-Apr-19 20:31N 57°13' E 008°01'612.8
2018-Apr-19 20:00N 57°17' E 008°11'612.7
2018-Apr-19 19:30N 57°21' E 008°20'1012.8
2018-Apr-19 18:44N 57°26' E 008°35'312.8
2018-Apr-19 18:30N 57°28' E 008°40'612.8
2018-Apr-19 18:00N 57°32' E 008°49'812.7
2018-Apr-19 17:23N 57°36' E 009°01'812.7
2018-Apr-19 16:47N 57°41' E 009°12'512.8
2018-Apr-19 16:24N 57°45' E 009°19'512.4
2018-Apr-19 15:59N 57°47' E 009°27'612.6
2018-Apr-19 15:31N 57°51' E 009°36'612.5
2018-Apr-19 15:00N 57°52' E 009°48'713.5
2018-Apr-19 14:28N 57°52' E 010°01'713.9
2018-Apr-19 14:00N 57°52' E 010°14'813.7
2018-Apr-19 13:26N 57°52' E 010°28'613.6
2018-Apr-19 13:00N 57°51' E 010°39'713.3
2018-Apr-19 12:30N 57°51' E 010°52'613.0
2018-Apr-19 12:00N 57°52' E 011°04'612.9
2018-Apr-19 11:30N 57°52' E 011°16'612.1
2018-Apr-19 11:00N 57°52' E 011°27'612.2
2018-Apr-19 10:30N 57°55' E 011°37'612.5
2018-Apr-19 10:00N 57°59' E 011°45'611.5
2018-Apr-19 09:30N 58°05' E 011°48'1 1.4
2018-Apr-19 08:55N 58°05' E 011°49'0 0.0
2018-Apr-19 08:28N 58°05' E 011°49'0 0.0
2018-Apr-19 07:52N 58°05' E 011°49'0 0.0
2018-Apr-19 07:28N 58°05' E 011°49'0 0.0
2018-Apr-19 06:58N 58°05' E 011°49'0 0.0
2018-Apr-19 06:28N 58°05' E 011°49'0 0.0
2018-Apr-19 05:58N 58°05' E 011°49'0 0.0
2018-Apr-19 05:28N 58°05' E 011°49'0 0.0
2018-Apr-19 04:58N 58°05' E 011°49'0 0.0
2018-Apr-19 04:25N 58°05' E 011°49'0 0.0
2018-Apr-19 03:52N 58°05' E 011°49'0 0.0
2018-Apr-19 03:19N 58°05' E 011°49'0 0.0
2018-Apr-19 02:58N 58°05' E 011°49'0 0.0
2018-Apr-19 02:28N 58°05' E 011°49'0 0.0
2018-Apr-19 01:58N 58°05' E 011°49'0 0.0
2018-Apr-19 01:28N 58°05' E 011°49'0 0.0
2018-Apr-19 00:55N 58°05' E 011°49'0 0.0
2018-Apr-19 00:28N 58°05' E 011°49'0 0.0
2018-Apr-18 23:58N 58°05' E 011°49'0 0.0
2018-Apr-18 23:28N 58°05' E 011°49'0 0.0
2018-Apr-18 22:58N 58°05' E 011°49'0 0.0
2018-Apr-18 22:28N 58°05' E 011°49'0 0.0
2018-Apr-18 21:55N 58°05' E 011°49'0 0.0
2018-Apr-18 21:19N 58°05' E 011°49'0 0.0
2018-Apr-18 20:55N 58°05' E 011°49'0 0.0
2018-Apr-18 20:28N 58°05' E 011°49'0 0.0
2018-Apr-18 19:58N 58°05' E 011°49'0 0.0
2018-Apr-18 19:28N 58°05' E 011°49'0 0.0
2018-Apr-18 18:55N 58°05' E 011°49'0 0.0
2018-Apr-18 18:28N 58°05' E 011°49'0 0.0
2018-Apr-18 17:58N 58°05' E 011°49'0 0.0
2018-Apr-18 17:22N 58°05' E 011°49'0 0.0
2018-Apr-18 16:52N 58°05' E 011°49'0 0.0
2018-Apr-18 16:22N 58°05' E 011°49'0 0.0
2018-Apr-18 15:58N 58°05' E 011°49'0 0.0
2018-Apr-18 15:28N 58°05' E 011°49'0 0.0
2018-Apr-18 14:58N 58°05' E 011°49'0 0.0
2018-Apr-18 14:28N 58°05' E 011°49'0 0.0
2018-Apr-18 13:58N 58°05' E 011°49'0 0.0
2018-Apr-18 13:28N 58°05' E 011°49'0 0.0
2018-Apr-18 12:55N 58°05' E 011°49'0 0.0
2018-Apr-18 12:25N 58°05' E 011°49'0 0.0
2018-Apr-18 11:58N 58°05' E 011°49'0 0.0
2018-Apr-18 11:25N 58°05' E 011°49'0 0.0
2018-Apr-18 10:58N 58°05' E 011°49'0 0.0
2018-Apr-18 10:28N 58°05' E 011°49'0 0.0
2018-Apr-18 09:58N 58°05' E 011°49'0 0.0
2018-Apr-18 09:28N 58°05' E 011°49'0 0.0
2018-Apr-18 08:58N 58°05' E 011°49'0 0.0
2018-Apr-18 08:28N 58°05' E 011°49'0 0.0
2018-Apr-18 08:00N 58°05' E 011°49'1 1.7
2018-Apr-18 07:30N 58°05' E 011°48'611.7
2018-Apr-18 07:00N 57°59' E 011°45'713.9
2018-Apr-18 06:31N 57°55' E 011°35'612.8
2018-Apr-18 06:01N 57°50' E 011°26'4 8.3
2018-Apr-18 05:30N 57°54' E 011°22'2 3.9
2018-Apr-18 04:59N 57°56' E 011°21'0 0.0
2018-Apr-18 04:30N 57°56' E 011°21'0 0.1
2018-Apr-18 04:00N 57°56' E 011°21'0 0.0
2018-Apr-18 03:30N 57°56' E 011°21'0 0.0
2018-Apr-18 03:00N 57°56' E 011°21'0 0.0
2018-Apr-18 02:30N 57°56' E 011°21'0 0.0
2018-Apr-18 02:00N 57°56' E 011°21'0 0.0
2018-Apr-18 01:30N 57°56' E 011°21'0 0.0
2018-Apr-18 01:00N 57°56' E 011°21'0 0.0
2018-Apr-18 00:30N 57°56' E 011°21'0 0.0
2018-Apr-18 00:00N 57°56' E 011°21'0 0.0
2018-Apr-17 23:30N 57°56' E 011°21'0 0.0
2018-Apr-17 23:00N 57°56' E 011°21'0 0.0
2018-Apr-17 22:30N 57°56' E 011°21'0 0.0
2018-Apr-17 22:00N 57°56' E 011°21'0 0.0
2018-Apr-17 21:30N 57°56' E 011°21'0 0.0
2018-Apr-17 21:00N 57°56' E 011°21'0 0.0
2018-Apr-17 20:30N 57°56' E 011°21'0 0.0
2018-Apr-17 20:00N 57°56' E 011°21'0 0.0
2018-Apr-17 19:30N 57°56' E 011°21'0 0.0
2018-Apr-17 19:00N 57°56' E 011°21'0 0.0
2018-Apr-17 18:30N 57°56' E 011°21'0 0.0
2018-Apr-17 18:00N 57°56' E 011°21'0 0.0
2018-Apr-17 17:30N 57°56' E 011°21'0 0.0
2018-Apr-17 17:00N 57°56' E 011°21'0 0.0
2018-Apr-17 16:30N 57°56' E 011°21'0 0.0
2018-Apr-17 16:00N 57°56' E 011°21'0 0.0
2018-Apr-17 15:30N 57°56' E 011°21'1 1.7
2018-Apr-17 15:00N 57°55' E 011°21'510.7
2018-Apr-17 14:30N 57°53' E 011°31'713.7
2018-Apr-17 14:00N 57°57' E 011°42'713.4
2018-Apr-17 13:30N 58°03' E 011°47'612.0
2018-Apr-17 13:00N 58°09' E 011°50'813.3
2018-Apr-17 12:22N 58°17' E 011°48'  

Dump ship's entire track history